createdAt,value
2024-03-02T00:00:12.907Z,7.20
2024-03-02T00:02:45.349Z,7.30
2024-03-02T00:08:42.369Z,7.30
2024-03-02T00:11:16.945Z,7.20
2024-03-02T00:13:45.339Z,7.20
2024-03-02T00:19:14.603Z,7.20
2024-03-02T00:21:41.932Z,7.10
2024-03-02T00:24:33.066Z,7.10
2024-03-02T00:27:00.193Z,7.10
2024-03-02T00:29:29.238Z,7.10
2024-03-02T00:31:56.961Z,7.20
2024-03-02T00:34:25.845Z,7.20
2024-03-02T00:36:53.453Z,7.30
2024-03-02T00:44:38.181Z,7.30
2024-03-02T00:47:08.862Z,7.30
2024-03-02T00:49:37.767Z,7.20
2024-03-02T00:52:21.174Z,7.10
2024-03-02T00:54:54.404Z,7.00
2024-03-02T00:57:26.624Z,6.90
2024-03-02T01:00:12.662Z,6.90
2024-03-02T01:02:49.297Z,6.90
2024-03-02T01:05:19.653Z,6.80
2024-03-02T01:11:01.495Z,6.80
2024-03-02T01:13:32.190Z,6.70
2024-03-02T01:16:00.016Z,6.70
2024-03-02T01:18:50.870Z,6.60
2024-03-02T01:21:54.351Z,6.70
2024-03-02T01:24:21.563Z,6.80
2024-03-02T01:27:01.524Z,6.80
2024-03-02T01:29:39.009Z,6.90
2024-03-02T01:32:06.824Z,7.00
2024-03-02T01:34:34.236Z,6.90
2024-03-02T01:39:51.652Z,7.00
2024-03-02T01:42:45.846Z,7.00
2024-03-02T01:45:44.603Z,6.90
2024-03-02T01:48:12.139Z,7.00
2024-03-02T01:50:39.551Z,6.90
2024-03-02T01:53:10.200Z,6.90
2024-03-02T01:56:00.132Z,6.90
2024-03-02T01:58:27.749Z,7.10
2024-03-02T02:00:57.352Z,7.10
2024-03-02T02:03:25.171Z,7.20
2024-03-02T02:11:08.353Z,7.30
2024-03-02T02:13:36.060Z,7.40
2024-03-02T02:16:09.292Z,7.40
2024-03-02T02:18:37.909Z,7.30
2024-03-02T02:21:06.051Z,7.30
2024-03-02T02:23:34.529Z,7.30
2024-03-02T02:26:05.436Z,7.30
2024-03-02T02:31:52.912Z,7.00
2024-03-02T02:34:21.994Z,7.00
2024-03-02T02:36:50.354Z,7.00
2024-03-02T02:39:21.221Z,7.10
2024-03-02T02:41:56.890Z,7.10
2024-03-02T02:44:24.888Z,7.20
2024-03-02T02:46:53.270Z,7.20
2024-03-02T02:49:23.713Z,7.20
2024-03-02T02:57:09.023Z,7.10
2024-03-02T02:59:51.170Z,7.20
2024-03-02T03:02:29.189Z,7.10
2024-03-02T03:05:13.825Z,7.00
2024-03-02T03:07:50.664Z,7.10
2024-03-02T03:10:20.639Z,7.10
2024-03-02T03:12:56.771Z,7.20
2024-03-02T03:15:31.898Z,7.30
2024-03-02T03:24:34.969Z,7.30
2024-03-02T03:27:07.522Z,7.30
2024-03-02T03:29:35.390Z,7.30
2024-03-02T03:32:08.127Z,7.10
2024-03-02T03:34:35.716Z,7.10
2024-03-02T03:37:03.118Z,7.10
2024-03-02T03:39:36.396Z,7.10
2024-03-02T03:42:17.354Z,7.20
2024-03-02T03:59:45.205Z,7.20
2024-03-02T04:02:13.437Z,6.90
2024-03-02T04:04:58.350Z,6.90
2024-03-02T04:07:26.011Z,6.90
2024-03-02T04:09:53.558Z,6.80
2024-03-02T04:12:20.895Z,6.80
2024-03-02T04:17:33.389Z,6.60
2024-03-02T04:20:01.932Z,6.60
2024-03-02T04:37:58.265Z,6.70
2024-03-02T04:40:29.308Z,6.60
2024-03-02T04:42:58.272Z,6.70
2024-03-02T04:45:28.632Z,6.70
2024-03-02T04:47:57.136Z,6.70
2024-03-02T04:50:31.298Z,6.80
2024-03-02T04:52:59.525Z,6.90
2024-03-02T04:55:53.122Z,6.80
2024-03-02T04:58:20.457Z,6.80
2024-03-02T05:18:11.167Z,6.70
2024-03-02T05:20:38.825Z,6.70
2024-03-02T05:23:06.616Z,6.80
2024-03-02T05:25:38.234Z,7.00
2024-03-02T05:28:06.383Z,7.10
2024-03-02T05:30:38.307Z,6.90
2024-03-02T05:33:25.862Z,6.80
2024-03-02T05:35:54.068Z,6.80
2024-03-02T05:54:00.609Z,6.60
2024-03-02T05:56:31.171Z,6.80
2024-03-02T05:59:08.861Z,7.00
2024-03-02T06:01:36.420Z,7.00
2024-03-02T06:04:03.938Z,7.00
2024-03-02T06:06:37.207Z,7.00
2024-03-02T06:09:20.296Z,6.90
2024-03-02T06:14:45.724Z,6.90
2024-03-02T06:17:15.600Z,6.60
2024-03-02T06:19:42.752Z,6.70
2024-03-02T06:22:11.090Z,6.60
2024-03-02T06:24:42.502Z,6.50
2024-03-02T06:27:10.097Z,6.50
2024-03-02T06:29:45.636Z,6.50
2024-03-02T06:32:15.337Z,6.40
2024-03-02T06:40:00.184Z,6.40
2024-03-02T06:42:29.575Z,6.50
2024-03-02T06:44:57.345Z,6.50
2024-03-02T06:47:25.183Z,6.70
2024-03-02T06:49:54.090Z,6.80
2024-03-02T06:52:25.129Z,6.80
2024-03-02T06:54:52.880Z,6.90
2024-03-02T06:57:30.150Z,6.70
2024-03-02T07:00:00.584Z,6.60
2024-03-02T07:17:07.801Z,6.80
2024-03-02T07:19:36.105Z,6.90
2024-03-02T07:22:08.471Z,7.10
2024-03-02T07:24:44.377Z,7.00
2024-03-02T07:27:28.984Z,7.00
2024-03-02T07:30:10.638Z,7.10
2024-03-02T07:32:48.793Z,7.10
2024-03-02T07:35:19.456Z,6.90
2024-03-02T07:42:01.471Z,6.80
2024-03-02T07:44:29.074Z,6.90
2024-03-02T07:46:56.289Z,7.00
2024-03-02T07:49:23.727Z,7.10
2024-03-02T07:51:51.354Z,7.10
2024-03-02T07:54:18.578Z,7.30
2024-03-02T07:56:47.633Z,7.40
2024-03-02T07:59:16.549Z,7.60
2024-03-02T08:06:13.970Z,7.70
2024-03-02T08:08:47.045Z,7.90
2024-03-02T08:11:15.500Z,8.00
2024-03-02T08:13:42.989Z,8.00
2024-03-02T08:16:11.359Z,8.00
2024-03-02T08:18:38.667Z,8.00
2024-03-02T08:23:55.208Z,8.00
2024-03-02T08:41:59.369Z,8.20
2024-03-02T08:44:26.610Z,8.40
2024-03-02T08:46:53.898Z,8.60
2024-03-02T08:49:23.691Z,8.60
2024-03-02T08:51:55.419Z,8.60
2024-03-02T08:54:22.867Z,8.70
2024-03-02T08:56:50.809Z,8.90
2024-03-02T08:59:22.738Z,8.90
2024-03-02T09:18:58.865Z,9.10
2024-03-02T09:22:04.012Z,9.40
2024-03-02T09:24:32.522Z,9.60
2024-03-02T09:27:05.794Z,9.80
2024-03-02T09:29:37.878Z,9.80
2024-03-02T09:32:19.372Z,9.90
2024-03-02T09:34:50.097Z,9.90
2024-03-02T09:40:43.552Z,9.90
2024-03-02T09:43:20.911Z,10.10
2024-03-02T09:45:49.806Z,10.40
2024-03-02T09:48:19.197Z,10.70
2024-03-02T09:51:05.194Z,10.90
2024-03-02T09:53:34.130Z,10.90
2024-03-02T09:56:08.427Z,11.10
2024-03-02T10:02:25.836Z,11.30
2024-03-02T10:21:04.900Z,11.70
2024-03-02T10:23:39.308Z,12.70
2024-03-02T10:26:24.650Z,12.80
2024-03-02T10:29:10.565Z,12.80
2024-03-02T10:31:40.698Z,12.60
2024-03-02T10:34:08.598Z,12.60
2024-03-02T10:36:37.616Z,12.70
2024-03-02T10:39:22.607Z,12.90
2024-03-02T10:47:34.885Z,12.60
2024-03-02T10:50:09.716Z,12.90
2024-03-02T10:52:50.263Z,12.90
2024-03-02T10:55:38.726Z,13.00
2024-03-02T11:01:23.156Z,13.10
2024-03-02T11:04:00.451Z,13.30
2024-03-02T11:07:00.230Z,13.30
2024-03-02T11:17:32.205Z,13.40
2024-03-02T11:23:06.760Z,13.50
2024-03-02T11:25:36.516Z,13.60
2024-03-02T11:28:06.375Z,13.60
2024-03-02T11:30:57.766Z,13.60
2024-03-02T11:33:30.012Z,13.70
2024-03-02T11:36:02.822Z,13.60
2024-03-02T11:46:31.668Z,13.60
2024-03-02T11:52:40.545Z,13.70
2024-03-02T11:55:24.936Z,13.70
2024-03-02T11:58:08.316Z,13.50
2024-03-02T12:00:35.830Z,13.50
2024-03-02T12:03:07.379Z,13.60
2024-03-02T12:05:38.975Z,13.70
2024-03-02T12:13:02.741Z,13.80
2024-03-02T12:15:33.092Z,13.80
2024-03-02T12:18:02.576Z,14.00
2024-03-02T12:20:38.872Z,14.10
2024-03-02T12:23:06.651Z,14.20
2024-03-02T12:25:34.071Z,14.40
2024-03-02T12:28:05.250Z,14.40
2024-03-02T12:37:59.081Z,14.70
2024-03-02T12:40:26.400Z,14.80
2024-03-02T12:42:58.260Z,14.80
2024-03-02T12:45:33.068Z,14.90
2024-03-02T12:48:02.601Z,15.00
2024-03-02T12:50:45.276Z,14.90
2024-03-02T12:56:14.370Z,15.10
2024-03-02T12:58:42.700Z,15.10
2024-03-02T13:01:13.078Z,15.10
2024-03-02T13:03:41.748Z,15.20
2024-03-02T13:06:15.413Z,15.30
2024-03-02T13:08:45.982Z,15.30
2024-03-02T13:11:17.651Z,15.30
2024-03-02T13:26:58.522Z,15.20
2024-03-02T13:29:27.137Z,15.70
2024-03-02T13:31:56.898Z,15.50
2024-03-02T13:34:25.929Z,15.50
2024-03-02T13:37:10.641Z,15.60
2024-03-02T13:39:44.606Z,15.70
2024-03-02T13:42:15.884Z,15.70
2024-03-02T13:52:22.350Z,15.60
2024-03-02T13:54:49.798Z,15.40
2024-03-02T13:57:26.354Z,15.40
2024-03-02T13:59:58.673Z,15.40
2024-03-02T14:02:35.321Z,15.60
2024-03-02T14:05:07.010Z,15.70
2024-03-02T14:07:50.189Z,15.50
2024-03-02T14:10:27.523Z,15.50
2024-03-02T14:17:35.013Z,15.40
2024-03-02T14:20:29.465Z,15.20
2024-03-02T14:25:51.840Z,15.40
2024-03-02T14:28:49.392Z,15.40
2024-03-02T14:31:39.372Z,15.50
2024-03-02T14:34:25.199Z,15.40
2024-03-02T14:36:58.516Z,15.50
2024-03-02T14:45:24.086Z,15.20
2024-03-02T14:47:56.811Z,15.10
2024-03-02T14:50:27.119Z,15.00
2024-03-02T14:53:27.998Z,15.00
2024-03-02T14:56:02.751Z,14.90
2024-03-02T14:58:34.254Z,14.90
2024-03-02T15:01:02.230Z,14.90
2024-03-02T15:03:29.844Z,15.00
2024-03-02T15:06:15.908Z,15.10
2024-03-02T15:11:44.101Z,15.10
2024-03-02T15:14:11.411Z,15.00
2024-03-02T15:16:38.604Z,14.90
2024-03-02T15:19:08.213Z,14.90
2024-03-02T15:21:38.962Z,14.90
2024-03-02T15:24:11.938Z,14.90
2024-03-02T15:26:47.064Z,15.00
2024-03-02T15:29:14.621Z,14.80
2024-03-02T15:36:58.676Z,14.70
2024-03-02T15:39:25.991Z,14.70
2024-03-02T15:41:59.320Z,14.70
2024-03-02T15:44:28.636Z,14.70
2024-03-02T15:46:56.068Z,14.60
2024-03-02T15:49:28.779Z,14.70
2024-03-02T15:51:56.135Z,14.60
2024-03-02T15:59:46.907Z,14.60
2024-03-02T16:02:14.997Z,14.40
2024-03-02T16:04:43.289Z,14.50
2024-03-02T16:07:11.314Z,14.50
2024-03-02T16:09:41.789Z,14.40
2024-03-02T16:12:16.036Z,14.40
2024-03-02T16:14:45.690Z,14.40
2024-03-02T16:17:15.083Z,14.60
2024-03-02T16:22:33.180Z,14.60
2024-03-02T16:25:00.698Z,14.60
2024-03-02T16:27:29.124Z,14.60
2024-03-02T16:29:58.560Z,14.90
2024-03-02T16:32:26.425Z,14.80
2024-03-02T16:34:53.668Z,14.60
2024-03-02T16:37:36.743Z,14.60
2024-03-02T16:45:18.677Z,14.50
2024-03-02T16:47:46.458Z,14.20
2024-03-02T16:50:20.497Z,14.10
2024-03-02T16:53:08.799Z,14.30
2024-03-02T16:55:45.074Z,14.30
2024-03-02T17:01:08.622Z,14.20
2024-03-02T17:03:37.297Z,14.20
2024-03-02T17:11:17.924Z,14.40
2024-03-02T17:13:46.347Z,14.30
2024-03-02T17:16:14.941Z,14.40
2024-03-02T17:18:43.034Z,14.20
2024-03-02T17:21:10.582Z,14.00
2024-03-02T17:23:47.653Z,13.90
2024-03-02T17:26:17.914Z,13.80
2024-03-02T17:31:39.158Z,13.70
2024-03-02T17:34:11.553Z,13.40
2024-03-02T17:36:40.494Z,13.10
2024-03-02T17:39:23.787Z,13.00
2024-03-02T17:41:56.640Z,13.00
2024-03-02T17:44:24.210Z,12.90
2024-03-02T17:46:58.058Z,12.90
2024-03-02T17:54:01.266Z,12.80
2024-03-02T17:56:33.936Z,12.70
2024-03-02T17:59:00.900Z,12.60
2024-03-02T18:01:34.323Z,12.60
2024-03-02T18:04:14.022Z,12.50
2024-03-02T18:06:43.911Z,12.40
2024-03-02T18:09:12.325Z,12.40
2024-03-02T18:14:28.136Z,12.30
2024-03-02T18:16:55.172Z,12.20
2024-03-02T18:19:22.377Z,12.10
2024-03-02T18:21:50.376Z,12.10
2024-03-02T18:24:18.129Z,11.90
2024-03-02T18:26:45.321Z,11.90
2024-03-02T18:29:14.454Z,11.90
2024-03-02T18:31:44.989Z,11.80
2024-03-02T18:38:27.402Z,11.90
2024-03-02T18:40:55.281Z,11.60
2024-03-02T18:43:25.121Z,11.70
2024-03-02T18:45:53.598Z,11.60
2024-03-02T18:48:23.868Z,11.50
2024-03-02T18:50:51.176Z,11.50
2024-03-02T18:53:18.159Z,11.50
2024-03-02T18:58:33.023Z,11.50
2024-03-02T19:01:00.614Z,11.50
2024-03-02T19:03:29.728Z,11.60
2024-03-02T19:05:56.708Z,11.70
2024-03-02T19:08:25.439Z,11.70
2024-03-02T19:10:55.181Z,11.60
2024-03-02T19:13:24.597Z,11.60
2024-03-02T19:20:44.930Z,11.50
2024-03-02T19:23:18.483Z,11.50
2024-03-02T19:25:48.694Z,11.50
2024-03-02T19:28:15.967Z,11.50
2024-03-02T19:30:45.979Z,11.40
2024-03-02T19:33:15.018Z,11.40
2024-03-02T19:35:42.268Z,11.40
2024-03-02T19:42:43.689Z,11.50
2024-03-02T19:45:11.110Z,11.40
2024-03-02T19:47:38.249Z,11.30
2024-03-02T19:50:06.343Z,11.20
2024-03-02T19:52:34.126Z,11.20
2024-03-02T19:55:03.137Z,11.30
2024-03-02T19:57:30.279Z,11.30
2024-03-02T20:04:58.018Z,11.20
2024-03-02T20:07:25.259Z,11.30
2024-03-02T20:09:53.742Z,11.20
2024-03-02T20:12:21.064Z,11.30
2024-03-02T20:14:49.491Z,11.30
2024-03-02T20:17:16.555Z,11.20
2024-03-02T20:19:43.698Z,11.20
2024-03-02T20:27:16.726Z,11.20
2024-03-02T20:29:43.923Z,11.20
2024-03-02T20:32:11.000Z,11.10
2024-03-02T20:34:38.235Z,11.10
2024-03-02T20:37:06.276Z,11.10
2024-03-02T20:39:34.135Z,11.10
2024-03-02T20:42:01.255Z,11.10
2024-03-02T20:47:09.619Z,11.10
2024-03-02T20:49:37.739Z,11.10
2024-03-02T20:52:05.867Z,11.10
2024-03-02T20:54:33.236Z,10.90
2024-03-02T20:57:00.475Z,10.80
2024-03-02T20:59:28.312Z,10.90
2024-03-02T21:01:56.303Z,11.00
2024-03-02T21:09:14.564Z,10.90
2024-03-02T21:11:44.725Z,10.80
2024-03-02T21:14:12.128Z,11.00
2024-03-02T21:16:40.742Z,10.80
2024-03-02T21:19:09.060Z,10.90
2024-03-02T21:21:38.866Z,10.80
2024-03-02T21:24:08.191Z,10.80
2024-03-02T21:31:37.865Z,10.70
2024-03-02T21:34:05.089Z,10.70
2024-03-02T21:36:32.810Z,10.70
2024-03-02T21:39:02.749Z,10.80
2024-03-02T21:41:31.476Z,10.80
2024-03-02T21:43:58.634Z,10.70
2024-03-02T21:46:25.982Z,10.70
2024-03-02T21:54:09.143Z,10.60
2024-03-02T21:56:37.174Z,10.60
2024-03-02T21:59:04.429Z,10.60
2024-03-02T22:01:31.867Z,10.60
2024-03-02T22:03:59.142Z,10.60
2024-03-02T22:06:27.200Z,10.70
2024-03-02T22:08:55.304Z,10.50
2024-03-02T22:16:27.440Z,10.50
2024-03-02T22:18:57.073Z,10.50
2024-03-02T22:21:24.137Z,10.50
2024-03-02T22:23:51.307Z,10.50
2024-03-02T22:26:19.549Z,10.40
2024-03-02T22:28:46.553Z,10.40
2024-03-02T22:31:15.222Z,10.20
2024-03-02T22:38:28.443Z,10.10
2024-03-02T22:40:56.102Z,10.10
2024-03-02T22:43:23.167Z,10.00
2024-03-02T22:45:51.547Z,9.90
2024-03-02T22:48:19.953Z,9.90
2024-03-02T22:50:47.419Z,9.80
2024-03-02T22:53:14.641Z,9.80
2024-03-02T23:00:50.050Z,9.90
2024-03-02T23:03:18.849Z,9.80
2024-03-02T23:05:49.278Z,9.90
2024-03-02T23:08:20.644Z,9.80
2024-03-02T23:10:47.563Z,9.80
2024-03-02T23:13:14.675Z,9.80
2024-03-02T23:15:41.715Z,9.70
2024-03-02T23:21:34.954Z,9.70
2024-03-02T23:24:02.201Z,9.60
2024-03-02T23:26:29.100Z,9.70
2024-03-02T23:28:55.979Z,9.70
2024-03-02T23:31:23.371Z,9.70
2024-03-02T23:33:50.977Z,9.60
2024-03-02T23:36:18.027Z,9.70
2024-03-02T23:44:08.336Z,9.60
2024-03-02T23:46:35.622Z,9.50
2024-03-02T23:49:03.263Z,9.60
2024-03-02T23:51:30.495Z,9.50
2024-03-02T23:53:58.092Z,9.50
2024-03-02T23:56:25.111Z,9.50
2024-03-02T23:58:52.412Z,9.40
